Aviation Digital Data Service (ADDS)

Output produced by METARs form (1241 UTC 09 December 2019)
found at http://aviationweather.gov/metar/data/
 
METAR text: KPGV 091235Z AUTO 00000KT 1/2SM FG OVC002 08/08 A3016 RMK AO2
Conditions at: KPGV (PITT GREENVILLE , NC, US) observed 1235 UTC 09 December 2019
Temperature: 8.0°C (46°F)
Dewpoint: 8.0°C (46°F) [RH = 100%]
Pressure (altimeter): 30.16 inches Hg (1021.4 mb)
Winds: calm
Visibility: 0.50 miles (0.80 km)
Ceiling: 200 feet AGL
Clouds: overcast cloud deck at 200 feet AGL
Weather: FG  (fog)

METAR text: KPGV 091215Z AUTO 00000KT 1/2SM FG OVC002 08/08 A3015 RMK AO2
Conditions at: KPGV (PITT GREENVILLE , NC, US) observed 1215 UTC 09 December 2019
Temperature: 8.0°C (46°F)
Dewpoint: 8.0°C (46°F) [RH = 100%]
Pressure (altimeter): 30.15 inches Hg (1021.1 mb)
Winds: calm
Visibility: 0.50 miles (0.80 km)
Ceiling: 200 feet AGL
Clouds: overcast cloud deck at 200 feet AGL
Weather: FG  (fog)

METAR text: KPGV 091155Z AUTO 09003KT 2SM BR OVC002 08/08 A3015 RMK AO2
Conditions at: KPGV (PITT GREENVILLE , NC, US) observed 1155 UTC 09 December 2019
Temperature: 8.0°C (46°F)
Dewpoint: 8.0°C (46°F) [RH = 100%]
Pressure (altimeter): 30.15 inches Hg (1021.1 mb)
Winds: from the E (90 degrees) at 3 MPH (3 knots; 1.5 m/s)
Visibility: 2.00 miles (3.22 km)
Ceiling: 200 feet AGL
Clouds: overcast cloud deck at 200 feet AGL
Weather: BR  (mist)

METAR text: KPGV 091135Z AUTO 00000KT 5SM BR OVC002 08/08 A3017 RMK AO2
Conditions at: KPGV (PITT GREENVILLE , NC, US) observed 1135 UTC 09 December 2019
Temperature: 8.0°C (46°F)
Dewpoint: 8.0°C (46°F) [RH = 100%]
Pressure (altimeter): 30.17 inches Hg (1021.8 mb)
Winds: calm
Visibility: 5 miles ( 8 km)
Ceiling: 200 feet AGL
Clouds: overcast cloud deck at 200 feet AGL
Weather: BR  (mist)

METAR text: KPGV 091115Z AUTO 14003KT 7SM OVC002 08/08 A3018 RMK AO2
Conditions at: KPGV (PITT GREENVILLE , NC, US) observed 1115 UTC 09 December 2019
Temperature: 8.0°C (46°F)
Dewpoint: 8.0°C (46°F) [RH = 100%]
Pressure (altimeter): 30.18 inches Hg (1022.1 mb)
Winds: from the SE (140 degrees) at 3 MPH (3 knots; 1.5 m/s)
Visibility: 7 miles (11 km)
Ceiling: 200 feet AGL
Clouds: overcast cloud deck at 200 feet AGL
Weather: automated observation with no human augmentation;
there may or may not be significant weather present at this time

METAR text: KPGV 091055Z AUTO 00000KT 4SM BR OVC002 08/08 A3017 RMK AO2
Conditions at: KPGV (PITT GREENVILLE , NC, US) observed 1055 UTC 09 December 2019
Temperature: 8.0°C (46°F)
Dewpoint: 8.0°C (46°F) [RH = 100%]
Pressure (altimeter): 30.17 inches Hg (1021.8 mb)
Winds: calm
Visibility: 4 miles ( 6 km)
Ceiling: 200 feet AGL
Clouds: overcast cloud deck at 200 feet AGL
Weather: BR  (mist)

Forecast for: KPGV (PITT GREENVILLE , NC, US)
Text: KPGV 091133Z 0912/1012 VRB03KT P6SM OVC002
Forecast period: 1200 to 1500 UTC 09 December 2019
Forecast type: FROM: standard forecast or significant change
Winds: variable direction winds at 3 MPH (3 knots; 1.5 m/s)
Visibility: 6 or more miles 10+ km)
Ceiling: 200 feet AGL
Clouds: overcast cloud deck at 200 feet AGL
Weather: no significant weather forecast for this period
Text: TEMPO 0912/0915 1SM BR
Forecast period: 1200 to 1500 UTC 09 December 2019
Forecast type: TEMPORARY: The following changes expected for less than half the time period
Visibility: 1.00 miles (1.61 km)
Ceiling: unknown
Clouds: missing
Weather: BR  (mist)
Text: FM091500 19005KT P6SM OVC020
Forecast period: 1500 to 1800 UTC 09 December 2019
Forecast type: FROM: standard forecast or significant change
Winds: from the S (190 degrees) at 6 MPH (5 knots; 2.6 m/s)
Visibility: 6 or more miles 10+ km)
Ceiling: 2000 feet AGL
Clouds: overcast cloud deck at 2000 feet AGL
Weather: no significant weather forecast for this period
Text: FM091800 20009KT P6SM BKN080 AMD LTD TO CLD VIS AND WIND
Forecast period: 1800 UTC 09 December 2019 to 1200 UTC 10 December 2019
Forecast type: FROM: standard forecast or significant change
Winds: from the SSW (200 degrees) at 10 MPH (9 knots; 4.6 m/s)
Visibility: 6 or more miles 10+ km)
Ceiling: 8000 feet AGL
Clouds: broken clouds at 8000 feet AGL
Weather: no significant weather forecast for this period